sensor_id;sensor_type;location;lat;lon;timestamp;P1;durP1;ratioP1;P2;durP2;ratioP2
62071;SDS011;48031;48.542;13.232;2023-08-20T00:01:15;3.97;;;3.15;;
62071;SDS011;48031;48.542;13.232;2023-08-20T00:05:24;3.10;;;2.80;;
62071;SDS011;48031;48.542;13.232;2023-08-20T00:09:26;3.25;;;2.95;;
62071;SDS011;48031;48.542;13.232;2023-08-20T00:13:28;3.25;;;2.95;;
62071;SDS011;48031;48.542;13.232;2023-08-20T00:17:30;3.40;;;3.10;;
62071;SDS011;48031;48.542;13.232;2023-08-20T00:21:34;3.50;;;3.20;;
62071;SDS011;48031;48.542;13.232;2023-08-20T00:25:37;3.80;;;3.17;;
62071;SDS011;48031;48.542;13.232;2023-08-20T00:29:40;4.07;;;3.25;;
62071;SDS011;48031;48.542;13.232;2023-08-20T00:33:42;3.92;;;3.28;;
62071;SDS011;48031;48.542;13.232;2023-08-20T00:38:01;3.60;;;3.30;;
62071;SDS011;48031;48.542;13.232;2023-08-20T00:42:04;3.20;;;2.88;;
62071;SDS011;48031;48.542;13.232;2023-08-20T00:46:06;3.33;;;3.03;;
62071;SDS011;48031;48.542;13.232;2023-08-20T00:50:09;4.38;;;3.38;;
62071;SDS011;48031;48.542;13.232;2023-08-20T00:54:12;6.20;;;3.00;;
62071;SDS011;48031;48.542;13.232;2023-08-20T00:58:14;4.28;;;3.33;;
62071;SDS011;48031;48.542;13.232;2023-08-20T01:02:17;3.85;;;3.45;;
62071;SDS011;48031;48.542;13.232;2023-08-20T01:06:20;3.95;;;3.58;;
62071;SDS011;48031;48.542;13.232;2023-08-20T01:10:49;3.85;;;3.47;;
62071;SDS011;48031;48.542;13.232;2023-08-20T01:15:05;3.70;;;3.33;;
62071;SDS011;48031;48.542;13.232;2023-08-20T01:19:08;4.22;;;3.83;;
62071;SDS011;48031;48.542;13.232;2023-08-20T01:32:04;5.70;;;4.82;;
62071;SDS011;48031;48.542;13.232;2023-08-20T01:36:08;6.13;;;5.07;;
62071;SDS011;48031;48.542;13.232;2023-08-20T01:40:14;6.38;;;4.78;;
62071;SDS011;48031;48.542;13.232;2023-08-20T01:44:16;5.90;;;4.53;;
62071;SDS011;48031;48.542;13.232;2023-08-20T01:48:18;7.25;;;5.85;;
62071;SDS011;48031;48.542;13.232;2023-08-20T01:52:21;10.65;;;7.53;;
62071;SDS011;48031;48.542;13.232;2023-08-20T01:56:23;6.72;;;5.93;;
62071;SDS011;48031;48.542;13.232;2023-08-20T02:00:26;5.18;;;4.68;;
62071;SDS011;48031;48.542;13.232;2023-08-20T02:04:32;4.47;;;3.97;;
62071;SDS011;48031;48.542;13.232;2023-08-20T02:08:35;4.15;;;3.53;;
62071;SDS011;48031;48.542;13.232;2023-08-20T02:12:37;4.15;;;3.75;;
62071;SDS011;48031;48.542;13.232;2023-08-20T02:16:39;4.30;;;3.90;;
62071;SDS011;48031;48.542;13.232;2023-08-20T02:20:43;4.68;;;4.18;;
62071;SDS011;48031;48.542;13.232;2023-08-20T02:24:46;3.88;;;3.47;;
62071;SDS011;48031;48.542;13.232;2023-08-20T02:28:49;4.40;;;3.75;;
62071;SDS011;48031;48.542;13.232;2023-08-20T02:32:52;4.45;;;3.60;;
62071;SDS011;48031;48.542;13.232;2023-08-20T02:36:54;5.10;;;3.78;;
62071;SDS011;48031;48.542;13.232;2023-08-20T02:40:57;5.45;;;4.85;;
62071;SDS011;48031;48.542;13.232;2023-08-20T02:44:59;6.93;;;5.32;;
62071;SDS011;48031;48.542;13.232;2023-08-20T02:49:01;8.30;;;5.10;;
62071;SDS011;48031;48.542;13.232;2023-08-20T02:53:04;5.85;;;5.05;;
62071;SDS011;48031;48.542;13.232;2023-08-20T02:57:07;5.43;;;4.93;;
62071;SDS011;48031;48.542;13.232;2023-08-20T03:01:22;5.60;;;5.00;;
62071;SDS011;48031;48.542;13.232;2023-08-20T03:05:28;6.22;;;5.03;;
62071;SDS011;48031;48.542;13.232;2023-08-20T03:09:30;5.20;;;4.35;;
62071;SDS011;48031;48.542;13.232;2023-08-20T03:13:32;6.15;;;4.25;;
62071;SDS011;48031;48.542;13.232;2023-08-20T03:17:40;5.25;;;4.63;;
62071;SDS011;48031;48.542;13.232;2023-08-20T03:21:43;6.65;;;6.00;;
62071;SDS011;48031;48.542;13.232;2023-08-20T03:25:45;6.47;;;5.80;;
62071;SDS011;48031;48.542;13.232;2023-08-20T03:29:47;6.93;;;5.30;;
62071;SDS011;48031;48.542;13.232;2023-08-20T03:33:50;5.70;;;5.10;;
62071;SDS011;48031;48.542;13.232;2023-08-20T03:37:52;6.22;;;5.63;;
62071;SDS011;48031;48.542;13.232;2023-08-20T03:41:55;6.05;;;5.45;;
62071;SDS011;48031;48.542;13.232;2023-08-20T03:45:57;5.95;;;5.22;;
62071;SDS011;48031;48.542;13.232;2023-08-20T03:49:59;4.85;;;4.35;;
62071;SDS011;48031;48.542;13.232;2023-08-20T03:54:02;7.32;;;3.90;;
62071;SDS011;48031;48.542;13.232;2023-08-20T03:58:04;4.00;;;3.60;;
62071;SDS011;48031;48.542;13.232;2023-08-20T04:02:07;5.97;;;4.13;;
62071;SDS011;48031;48.542;13.232;2023-08-20T04:06:10;4.60;;;4.15;;
62071;SDS011;48031;48.542;13.232;2023-08-20T04:10:12;5.05;;;4.50;;
62071;SDS011;48031;48.542;13.232;2023-08-20T04:14:15;6.57;;;4.28;;
62071;SDS011;48031;48.542;13.232;2023-08-20T04:18:18;4.80;;;3.75;;
62071;SDS011;48031;48.542;13.232;2023-08-20T04:22:20;4.07;;;3.67;;
62071;SDS011;48031;48.542;13.232;2023-08-20T04:26:24;4.13;;;3.72;;
62071;SDS011;48031;48.542;13.232;2023-08-20T04:30:27;5.88;;;3.78;;
62071;SDS011;48031;48.542;13.232;2023-08-20T04:34:30;4.15;;;3.53;;
62071;SDS011;48031;48.542;13.232;2023-08-20T04:38:32;5.80;;;3.47;;
62071;SDS011;48031;48.542;13.232;2023-08-20T04:42:35;3.95;;;3.50;;
62071;SDS011;48031;48.542;13.232;2023-08-20T04:46:38;3.85;;;3.45;;
62071;SDS011;48031;48.542;13.232;2023-08-20T04:50:42;4.00;;;3.65;;
62071;SDS011;48031;48.542;13.232;2023-08-20T04:54:44;4.13;;;3.72;;
62071;SDS011;48031;48.542;13.232;2023-08-20T04:58:47;5.82;;;3.83;;
62071;SDS011;48031;48.542;13.232;2023-08-20T05:03:09;3.83;;;3.47;;
62071;SDS011;48031;48.542;13.232;2023-08-20T05:07:12;4.53;;;3.65;;
62071;SDS011;48031;48.542;13.232;2023-08-20T05:11:15;4.20;;;3.67;;
62071;SDS011;48031;48.542;13.232;2023-08-20T05:15:18;4.50;;;3.85;;
62071;SDS011;48031;48.542;13.232;2023-08-20T05:19:21;5.53;;;4.25;;
62071;SDS011;48031;48.542;13.232;2023-08-20T05:23:25;4.78;;;4.32;;
62071;SDS011;48031;48.542;13.232;2023-08-20T05:27:27;6.18;;;4.55;;
62071;SDS011;48031;48.542;13.232;2023-08-20T05:31:31;6.20;;;4.90;;
62071;SDS011;48031;48.542;13.232;2023-08-20T05:35:35;5.30;;;4.80;;
62071;SDS011;48031;48.542;13.232;2023-08-20T05:39:42;5.22;;;4.65;;
62071;SDS011;48031;48.542;13.232;2023-08-20T05:43:47;5.47;;;4.78;;
62071;SDS011;48031;48.542;13.232;2023-08-20T05:47:49;6.05;;;4.50;;
62071;SDS011;48031;48.542;13.232;2023-08-20T05:51:52;5.20;;;4.53;;
62071;SDS011;48031;48.542;13.232;2023-08-20T05:55:54;5.63;;;4.15;;
62071;SDS011;48031;48.542;13.232;2023-08-20T05:59:56;4.63;;;4.20;;
62071;SDS011;48031;48.542;13.232;2023-08-20T06:03:59;4.97;;;4.55;;
62071;SDS011;48031;48.542;13.232;2023-08-20T06:08:02;4.90;;;3.95;;
62071;SDS011;48031;48.542;13.232;2023-08-20T06:12:04;5.05;;;4.57;;
62071;SDS011;48031;48.542;13.232;2023-08-20T06:16:07;5.45;;;4.95;;
62071;SDS011;48031;48.542;13.232;2023-08-20T06:20:14;6.22;;;5.07;;
62071;SDS011;48031;48.542;13.232;2023-08-20T06:24:17;6.93;;;5.72;;
62071;SDS011;48031;48.542;13.232;2023-08-20T06:28:19;6.28;;;5.65;;
62071;SDS011;48031;48.542;13.232;2023-08-20T06:32:22;6.40;;;5.80;;
62071;SDS011;48031;48.542;13.232;2023-08-20T06:36:25;6.82;;;6.05;;
62071;SDS011;48031;48.542;13.232;2023-08-20T06:40:27;5.63;;;5.13;;
62071;SDS011;48031;48.542;13.232;2023-08-20T06:44:29;7.32;;;5.80;;
62071;SDS011;48031;48.542;13.232;2023-08-20T06:48:31;7.90;;;6.75;;
62071;SDS011;48031;48.542;13.232;2023-08-20T06:52:33;7.40;;;6.32;;
62071;SDS011;48031;48.542;13.232;2023-08-20T06:56:36;8.38;;;7.43;;
62071;SDS011;48031;48.542;13.232;2023-08-20T07:00:38;8.35;;;7.45;;
62071;SDS011;48031;48.542;13.232;2023-08-20T07:04:40;8.25;;;7.22;;
62071;SDS011;48031;48.542;13.232;2023-08-20T07:08:42;8.07;;;7.20;;
62071;SDS011;48031;48.542;13.232;2023-08-20T07:12:44;8.10;;;7.30;;
62071;SDS011;48031;48.542;13.232;2023-08-20T07:16:46;9.02;;;7.43;;
62071;SDS011;48031;48.542;13.232;2023-08-20T07:20:49;8.05;;;7.07;;
62071;SDS011;48031;48.542;13.232;2023-08-20T07:24:52;8.63;;;7.72;;
62071;SDS011;48031;48.542;13.232;2023-08-20T07:28:55;8.98;;;7.55;;
62071;SDS011;48031;48.542;13.232;2023-08-20T07:33:02;9.15;;;7.07;;
62071;SDS011;48031;48.542;13.232;2023-08-20T07:37:06;10.95;;;8.43;;
62071;SDS011;48031;48.542;13.232;2023-08-20T07:41:09;9.60;;;7.65;;
62071;SDS011;48031;48.542;13.232;2023-08-20T07:45:12;9.10;;;8.20;;
62071;SDS011;48031;48.542;13.232;2023-08-20T07:49:15;8.25;;;7.28;;
62071;SDS011;48031;48.542;13.232;2023-08-20T07:53:17;8.32;;;6.93;;
62071;SDS011;48031;48.542;13.232;2023-08-20T07:57:19;7.50;;;6.32;;
62071;SDS011;48031;48.542;13.232;2023-08-20T08:01:21;6.95;;;6.25;;
62071;SDS011;48031;48.542;13.232;2023-08-20T08:05:24;6.97;;;6.28;;
62071;SDS011;48031;48.542;13.232;2023-08-20T08:09:27;6.97;;;6.15;;
62071;SDS011;48031;48.542;13.232;2023-08-20T08:13:30;7.88;;;5.80;;
62071;SDS011;48031;48.542;13.232;2023-08-20T08:17:32;6.22;;;5.63;;
62071;SDS011;48031;48.542;13.232;2023-08-20T08:21:35;6.70;;;5.88;;
62071;SDS011;48031;48.542;13.232;2023-08-20T08:25:37;7.40;;;6.50;;
62071;SDS011;48031;48.542;13.232;2023-08-20T08:29:40;9.80;;;7.35;;
62071;SDS011;48031;48.542;13.232;2023-08-20T08:33:42;7.05;;;6.35;;
62071;SDS011;48031;48.542;13.232;2023-08-20T08:37:44;9.38;;;7.10;;
62071;SDS011;48031;48.542;13.232;2023-08-20T08:41:47;7.45;;;6.53;;
62071;SDS011;48031;48.542;13.232;2023-08-20T08:45:52;5.88;;;5.30;;
62071;SDS011;48031;48.542;13.232;2023-08-20T08:49:58;8.05;;;6.00;;
62071;SDS011;48031;48.542;13.232;2023-08-20T08:54:01;6.88;;;5.97;;
62071;SDS011;48031;48.542;13.232;2023-08-20T08:58:03;5.88;;;5.28;;
62071;SDS011;48031;48.542;13.232;2023-08-20T09:02:09;6.85;;;6.00;;
62071;SDS011;48031;48.542;13.232;2023-08-20T09:06:13;7.40;;;6.25;;
62071;SDS011;48031;48.542;13.232;2023-08-20T09:10:16;6.28;;;5.68;;
62071;SDS011;48031;48.542;13.232;2023-08-20T09:14:21;7.72;;;6.38;;
62071;SDS011;48031;48.542;13.232;2023-08-20T09:18:24;5.95;;;5.35;;
62071;SDS011;48031;48.542;13.232;2023-08-20T09:22:26;6.53;;;5.82;;
62071;SDS011;48031;48.542;13.232;2023-08-20T09:26:29;7.05;;;6.05;;
62071;SDS011;48031;48.542;13.232;2023-08-20T09:30:31;7.18;;;6.47;;
62071;SDS011;48031;48.542;13.232;2023-08-20T09:34:37;7.18;;;6.47;;
62071;SDS011;48031;48.542;13.232;2023-08-20T09:38:40;7.25;;;6.20;;
62071;SDS011;48031;48.542;13.232;2023-08-20T09:42:43;9.55;;;5.78;;
62071;SDS011;48031;48.542;13.232;2023-08-20T09:46:46;5.65;;;5.13;;
62071;SDS011;48031;48.542;13.232;2023-08-20T09:50:48;5.43;;;4.90;;
62071;SDS011;48031;48.542;13.232;2023-08-20T09:55:00;5.87;;;4.97;;
62071;SDS011;48031;48.542;13.232;2023-08-20T09:59:09;4.67;;;4.27;;
62071;SDS011;48031;48.542;13.232;2023-08-20T10:03:13;4.60;;;4.20;;
62071;SDS011;48031;48.542;13.232;2023-08-20T10:07:16;4.22;;;3.85;;
62071;SDS011;48031;48.542;13.232;2023-08-20T10:11:18;5.40;;;4.57;;
62071;SDS011;48031;48.542;13.232;2023-08-20T10:15:20;4.78;;;4.28;;
62071;SDS011;48031;48.542;13.232;2023-08-20T10:19:23;4.10;;;3.80;;
62071;SDS011;48031;48.542;13.232;2023-08-20T10:23:26;3.97;;;3.58;;
62071;SDS011;48031;48.542;13.232;2023-08-20T10:27:31;3.03;;;2.83;;
62071;SDS011;48031;48.542;13.232;2023-08-20T10:31:35;3.97;;;3.67;;
62071;SDS011;48031;48.542;13.232;2023-08-20T10:39:41;3.60;;;3.30;;
62071;SDS011;48031;48.542;13.232;2023-08-20T10:47:49;3.70;;;3.40;;
62071;SDS011;48031;48.542;13.232;2023-08-20T10:51:52;3.67;;;3.38;;
62071;SDS011;48031;48.542;13.232;2023-08-20T10:56:06;3.30;;;3.10;;
62071;SDS011;48031;48.542;13.232;2023-08-20T11:00:14;3.25;;;3.00;;
62071;SDS011;48031;48.542;13.232;2023-08-20T11:04:18;3.30;;;3.10;;
62071;SDS011;48031;48.542;13.232;2023-08-20T11:08:21;3.30;;;3.00;;
62071;SDS011;48031;48.542;13.232;2023-08-20T11:12:23;3.60;;;3.10;;
62071;SDS011;48031;48.542;13.232;2023-08-20T11:16:25;3.40;;;3.10;;
62071;SDS011;48031;48.542;13.232;2023-08-20T11:20:27;2.95;;;2.75;;
62071;SDS011;48031;48.542;13.232;2023-08-20T11:24:30;3.70;;;3.40;;
62071;SDS011;48031;48.542;13.232;2023-08-20T11:28:33;3.50;;;3.20;;
62071;SDS011;48031;48.542;13.232;2023-08-20T11:32:35;3.17;;;2.97;;
62071;SDS011;48031;48.542;13.232;2023-08-20T11:36:41;3.15;;;2.95;;
62071;SDS011;48031;48.542;13.232;2023-08-20T11:40:43;3.08;;;2.88;;
62071;SDS011;48031;48.542;13.232;2023-08-20T11:44:45;3.85;;;3.25;;
62071;SDS011;48031;48.542;13.232;2023-08-20T11:53:01;3.45;;;3.15;;
62071;SDS011;48031;48.542;13.232;2023-08-20T12:01:07;3.00;;;2.80;;
62071;SDS011;48031;48.542;13.232;2023-08-20T12:05:11;3.67;;;3.00;;
62071;SDS011;48031;48.542;13.232;2023-08-20T12:09:20;3.47;;;3.25;;
62071;SDS011;48031;48.542;13.232;2023-08-20T12:13:23;3.20;;;3.00;;
62071;SDS011;48031;48.542;13.232;2023-08-20T12:17:25;3.20;;;3.00;;
62071;SDS011;48031;48.542;13.232;2023-08-20T12:21:28;3.00;;;2.80;;
62071;SDS011;48031;48.542;13.232;2023-08-20T12:25:31;2.92;;;2.72;;
62071;SDS011;48031;48.542;13.232;2023-08-20T12:29:35;3.10;;;2.90;;
62071;SDS011;48031;48.542;13.232;2023-08-20T12:33:38;2.90;;;2.70;;
62071;SDS011;48031;48.542;13.232;2023-08-20T12:37:39;2.83;;;2.63;;
62071;SDS011;48031;48.542;13.232;2023-08-20T12:41:41;2.97;;;2.78;;
62071;SDS011;48031;48.542;13.232;2023-08-20T12:45:44;3.42;;;3.13;;
62071;SDS011;48031;48.542;13.232;2023-08-20T12:49:46;3.15;;;2.88;;
62071;SDS011;48031;48.542;13.232;2023-08-20T12:53:49;3.05;;;2.85;;
62071;SDS011;48031;48.542;13.232;2023-08-20T12:57:55;2.90;;;2.60;;
62071;SDS011;48031;48.542;13.232;2023-08-20T13:01:58;2.58;;;2.47;;
62071;SDS011;48031;48.542;13.232;2023-08-20T13:06:01;2.80;;;2.60;;
62071;SDS011;48031;48.542;13.232;2023-08-20T13:10:03;3.25;;;2.97;;
62071;SDS011;48031;48.542;13.232;2023-08-20T13:14:05;3.03;;;2.83;;
62071;SDS011;48031;48.542;13.232;2023-08-20T13:18:08;2.72;;;2.53;;
62071;SDS011;48031;48.542;13.232;2023-08-20T13:22:12;2.85;;;2.55;;
62071;SDS011;48031;48.542;13.232;2023-08-20T13:26:14;2.90;;;2.70;;
62071;SDS011;48031;48.542;13.232;2023-08-20T13:30:16;2.90;;;2.70;;
62071;SDS011;48031;48.542;13.232;2023-08-20T13:34:19;2.92;;;2.72;;
62071;SDS011;48031;48.542;13.232;2023-08-20T13:38:21;3.28;;;2.90;;
62071;SDS011;48031;48.542;13.232;2023-08-20T13:42:23;3.03;;;2.83;;
62071;SDS011;48031;48.542;13.232;2023-08-20T13:46:26;3.10;;;2.90;;
62071;SDS011;48031;48.542;13.232;2023-08-20T13:50:29;3.50;;;3.30;;
62071;SDS011;48031;48.542;13.232;2023-08-20T13:54:32;3.10;;;2.90;;
62071;SDS011;48031;48.542;13.232;2023-08-20T13:58:35;3.15;;;2.90;;
62071;SDS011;48031;48.542;13.232;2023-08-20T14:02:38;3.00;;;2.80;;
62071;SDS011;48031;48.542;13.232;2023-08-20T14:06:40;3.20;;;3.00;;
62071;SDS011;48031;48.542;13.232;2023-08-20T14:10:43;3.25;;;3.05;;
62071;SDS011;48031;48.542;13.232;2023-08-20T14:14:45;3.05;;;2.80;;
62071;SDS011;48031;48.542;13.232;2023-08-20T14:18:48;3.57;;;3.00;;
62071;SDS011;48031;48.542;13.232;2023-08-20T14:22:50;3.30;;;3.10;;
62071;SDS011;48031;48.542;13.232;2023-08-20T14:26:52;3.50;;;3.20;;
62071;SDS011;48031;48.542;13.232;2023-08-20T14:30:54;3.40;;;3.20;;
62071;SDS011;48031;48.542;13.232;2023-08-20T14:34:57;3.45;;;3.20;;
62071;SDS011;48031;48.542;13.232;2023-08-20T14:38:59;3.90;;;3.50;;
62071;SDS011;48031;48.542;13.232;2023-08-20T14:43:01;3.72;;;3.42;;
62071;SDS011;48031;48.542;13.232;2023-08-20T14:47:05;3.65;;;3.40;;
62071;SDS011;48031;48.542;13.232;2023-08-20T14:51:07;3.75;;;3.40;;
62071;SDS011;48031;48.542;13.232;2023-08-20T14:55:10;4.10;;;3.80;;
62071;SDS011;48031;48.542;13.232;2023-08-20T14:59:12;3.40;;;3.20;;
62071;SDS011;48031;48.542;13.232;2023-08-20T15:03:15;3.45;;;3.20;;
62071;SDS011;48031;48.542;13.232;2023-08-20T15:07:18;2.90;;;2.70;;
62071;SDS011;48031;48.542;13.232;2023-08-20T15:11:20;2.47;;;2.20;;
62071;SDS011;48031;48.542;13.232;2023-08-20T15:15:22;2.70;;;2.35;;
62071;SDS011;48031;48.542;13.232;2023-08-20T15:19:24;3.10;;;2.22;;
62071;SDS011;48031;48.542;13.232;2023-08-20T15:23:27;3.33;;;2.70;;
62071;SDS011;48031;48.542;13.232;2023-08-20T15:27:30;4.10;;;3.30;;
62071;SDS011;48031;48.542;13.232;2023-08-20T15:31:32;5.28;;;4.88;;
62071;SDS011;48031;48.542;13.232;2023-08-20T15:35:34;5.90;;;5.50;;
62071;SDS011;48031;48.542;13.232;2023-08-20T15:39:38;3.33;;;3.03;;
62071;SDS011;48031;48.542;13.232;2023-08-20T15:43:41;3.22;;;2.90;;
62071;SDS011;48031;48.542;13.232;2023-08-20T15:47:43;3.00;;;2.67;;
62071;SDS011;48031;48.542;13.232;2023-08-20T15:51:45;4.10;;;3.80;;
62071;SDS011;48031;48.542;13.232;2023-08-20T15:55:48;6.93;;;6.32;;
62071;SDS011;48031;48.542;13.232;2023-08-20T15:59:50;6.82;;;6.43;;
62071;SDS011;48031;48.542;13.232;2023-08-20T16:03:52;6.22;;;5.78;;
62071;SDS011;48031;48.542;13.232;2023-08-20T16:07:55;6.03;;;5.53;;
62071;SDS011;48031;48.542;13.232;2023-08-20T16:11:57;5.97;;;5.38;;
62071;SDS011;48031;48.542;13.232;2023-08-20T16:15:59;5.53;;;5.13;;
62071;SDS011;48031;48.542;13.232;2023-08-20T16:20:01;5.00;;;4.70;;
62071;SDS011;48031;48.542;13.232;2023-08-20T16:24:05;4.53;;;4.22;;
62071;SDS011;48031;48.542;13.232;2023-08-20T16:28:09;4.38;;;3.97;;
62071;SDS011;48031;48.542;13.232;2023-08-20T16:32:13;4.13;;;3.83;;
62071;SDS011;48031;48.542;13.232;2023-08-20T16:36:15;3.88;;;3.58;;
62071;SDS011;48031;48.542;13.232;2023-08-20T16:40:20;4.07;;;3.70;;
62071;SDS011;48031;48.542;13.232;2023-08-20T16:44:22;3.92;;;3.63;;
62071;SDS011;48031;48.542;13.232;2023-08-20T16:48:24;3.65;;;3.45;;
62071;SDS011;48031;48.542;13.232;2023-08-20T16:52:27;3.63;;;3.35;;
62071;SDS011;48031;48.542;13.232;2023-08-20T16:56:30;3.55;;;3.30;;
62071;SDS011;48031;48.542;13.232;2023-08-20T17:00:33;3.60;;;3.40;;
62071;SDS011;48031;48.542;13.232;2023-08-20T17:04:36;3.70;;;3.50;;
62071;SDS011;48031;48.542;13.232;2023-08-20T17:08:38;4.03;;;3.50;;
62071;SDS011;48031;48.542;13.232;2023-08-20T17:12:40;3.85;;;3.50;;
62071;SDS011;48031;48.542;13.232;2023-08-20T17:16:42;2.90;;;2.70;;
62071;SDS011;48031;48.542;13.232;2023-08-20T17:20:50;3.20;;;2.90;;
62071;SDS011;48031;48.542;13.232;2023-08-20T17:24:52;3.35;;;2.60;;
62071;SDS011;48031;48.542;13.232;2023-08-20T17:28:54;3.10;;;2.80;;
62071;SDS011;48031;48.542;13.232;2023-08-20T17:32:57;3.47;;;2.72;;
62071;SDS011;48031;48.542;13.232;2023-08-20T17:36:59;2.85;;;2.65;;
62071;SDS011;48031;48.542;13.232;2023-08-20T17:41:02;3.75;;;2.85;;
62071;SDS011;48031;48.542;13.232;2023-08-20T17:45:08;3.85;;;3.13;;
62071;SDS011;48031;48.542;13.232;2023-08-20T17:49:17;3.58;;;2.97;;
62071;SDS011;48031;48.542;13.232;2023-08-20T17:53:35;3.28;;;3.00;;
62071;SDS011;48031;48.542;13.232;2023-08-20T17:57:37;5.22;;;3.40;;
62071;SDS011;48031;48.542;13.232;2023-08-20T18:01:39;4.80;;;3.60;;
62071;SDS011;48031;48.542;13.232;2023-08-20T18:05:43;3.67;;;3.35;;
62071;SDS011;48031;48.542;13.232;2023-08-20T18:09:47;4.10;;;3.70;;
62071;SDS011;48031;48.542;13.232;2023-08-20T18:14:04;6.25;;;3.60;;
62071;SDS011;48031;48.542;13.232;2023-08-20T18:28:11;5.85;;;3.28;;
62071;SDS011;48031;48.542;13.232;2023-08-20T18:32:15;3.30;;;3.00;;
62071;SDS011;48031;48.542;13.232;2023-08-20T18:36:17;4.72;;;2.92;;
62071;SDS011;48031;48.542;13.232;2023-08-20T18:40:38;5.28;;;3.13;;
62071;SDS011;48031;48.542;13.232;2023-08-20T18:45:05;6.20;;;3.72;;
62071;SDS011;48031;48.542;13.232;2023-08-20T18:49:28;3.58;;;3.28;;
62071;SDS011;48031;48.542;13.232;2023-08-20T18:53:30;3.40;;;3.10;;
62071;SDS011;48031;48.542;13.232;2023-08-20T19:01:40;3.50;;;3.10;;
62071;SDS011;48031;48.542;13.232;2023-08-20T19:05:49;4.97;;;3.53;;
62071;SDS011;48031;48.542;13.232;2023-08-20T19:09:51;3.85;;;3.42;;
62071;SDS011;48031;48.542;13.232;2023-08-20T19:13:53;3.70;;;3.38;;
62071;SDS011;48031;48.542;13.232;2023-08-20T19:17:57;3.92;;;3.53;;
62071;SDS011;48031;48.542;13.232;2023-08-20T19:21:59;3.97;;;3.58;;
62071;SDS011;48031;48.542;13.232;2023-08-20T19:26:02;5.25;;;3.35;;
62071;SDS011;48031;48.542;13.232;2023-08-20T19:30:04;4.72;;;3.47;;
62071;SDS011;48031;48.542;13.232;2023-08-20T19:34:08;5.72;;;3.50;;
62071;SDS011;48031;48.542;13.232;2023-08-20T19:38:11;4.28;;;3.88;;
62071;SDS011;48031;48.542;13.232;2023-08-20T19:42:13;4.00;;;3.05;;
62071;SDS011;48031;48.542;13.232;2023-08-20T19:46:15;4.20;;;3.38;;
62071;SDS011;48031;48.542;13.232;2023-08-20T19:50:17;3.65;;;3.17;;
62071;SDS011;48031;48.542;13.232;2023-08-20T19:54:20;3.95;;;3.60;;
62071;SDS011;48031;48.542;13.232;2023-08-20T19:58:24;4.07;;;3.17;;
62071;SDS011;48031;48.542;13.232;2023-08-20T20:02:27;3.97;;;3.53;;
62071;SDS011;48031;48.542;13.232;2023-08-20T20:06:29;6.18;;;3.25;;
62071;SDS011;48031;48.542;13.232;2023-08-20T20:10:30;4.40;;;3.47;;
62071;SDS011;48031;48.542;13.232;2023-08-20T20:14:32;3.60;;;3.30;;
62071;SDS011;48031;48.542;13.232;2023-08-20T20:18:34;4.32;;;3.30;;
62071;SDS011;48031;48.542;13.232;2023-08-20T20:27:58;3.65;;;3.28;;
62071;SDS011;48031;48.542;13.232;2023-08-20T20:32:01;5.00;;;3.38;;
62071;SDS011;48031;48.542;13.232;2023-08-20T20:36:03;3.88;;;3.58;;
62071;SDS011;48031;48.542;13.232;2023-08-20T20:44:12;3.88;;;3.13;;
62071;SDS011;48031;48.542;13.232;2023-08-20T20:48:14;3.58;;;3.28;;
62071;SDS011;48031;48.542;13.232;2023-08-20T20:52:17;4.40;;;3.67;;
62071;SDS011;48031;48.542;13.232;2023-08-20T20:56:19;3.97;;;3.58;;
62071;SDS011;48031;48.542;13.232;2023-08-20T21:00:21;3.90;;;3.55;;
62071;SDS011;48031;48.542;13.232;2023-08-20T21:04:23;4.38;;;3.30;;
62071;SDS011;48031;48.542;13.232;2023-08-20T21:08:27;4.13;;;3.30;;
62071;SDS011;48031;48.542;13.232;2023-08-20T21:12:30;4.10;;;3.35;;
62071;SDS011;48031;48.542;13.232;2023-08-20T21:16:33;4.97;;;3.25;;
62071;SDS011;48031;48.542;13.232;2023-08-20T21:20:35;4.05;;;3.50;;
62071;SDS011;48031;48.542;13.232;2023-08-20T21:24:38;4.60;;;3.60;;
62071;SDS011;48031;48.542;13.232;2023-08-20T21:28:41;3.90;;;3.42;;
62071;SDS011;48031;48.542;13.232;2023-08-20T21:32:43;7.25;;;3.55;;
62071;SDS011;48031;48.542;13.232;2023-08-20T21:36:45;4.10;;;3.70;;
62071;SDS011;48031;48.542;13.232;2023-08-20T21:40:47;4.30;;;3.78;;
62071;SDS011;48031;48.542;13.232;2023-08-20T21:44:50;4.18;;;3.78;;
62071;SDS011;48031;48.542;13.232;2023-08-20T21:48:52;4.60;;;3.85;;
62071;SDS011;48031;48.542;13.232;2023-08-20T21:52:55;4.25;;;3.85;;
62071;SDS011;48031;48.542;13.232;2023-08-20T21:56:56;10.32;;;3.50;;
62071;SDS011;48031;48.542;13.232;2023-08-20T22:00:58;4.05;;;3.65;;
62071;SDS011;48031;48.542;13.232;2023-08-20T22:05:15;4.50;;;4.10;;
62071;SDS011;48031;48.542;13.232;2023-08-20T22:09:19;5.20;;;4.03;;
62071;SDS011;48031;48.542;13.232;2023-08-20T22:13:21;4.50;;;3.70;;
62071;SDS011;48031;48.542;13.232;2023-08-20T22:17:22;4.57;;;3.85;;
62071;SDS011;48031;48.542;13.232;2023-08-20T22:21:25;5.82;;;3.60;;
62071;SDS011;48031;48.542;13.232;2023-08-20T22:25:27;3.95;;;3.60;;
62071;SDS011;48031;48.542;13.232;2023-08-20T22:29:29;4.80;;;3.67;;
62071;SDS011;48031;48.542;13.232;2023-08-20T22:33:32;4.70;;;3.58;;
62071;SDS011;48031;48.542;13.232;2023-08-20T22:37:34;3.88;;;3.47;;
62071;SDS011;48031;48.542;13.232;2023-08-20T22:41:36;3.60;;;3.15;;
62071;SDS011;48031;48.542;13.232;2023-08-20T22:45:38;4.85;;;4.35;;
62071;SDS011;48031;48.542;13.232;2023-08-20T22:49:40;4.90;;;4.40;;
62071;SDS011;48031;48.542;13.232;2023-08-20T22:53:43;4.20;;;3.80;;
62071;SDS011;48031;48.542;13.232;2023-08-20T22:57:45;3.83;;;3.42;;
62071;SDS011;48031;48.542;13.232;2023-08-20T23:01:47;4.25;;;3.65;;
62071;SDS011;48031;48.542;13.232;2023-08-20T23:05:49;5.32;;;3.85;;
62071;SDS011;48031;48.542;13.232;2023-08-20T23:09:51;3.92;;;3.60;;
62071;SDS011;48031;48.542;13.232;2023-08-20T23:13:53;3.95;;;3.58;;
62071;SDS011;48031;48.542;13.232;2023-08-20T23:17:54;4.60;;;4.15;;
62071;SDS011;48031;48.542;13.232;2023-08-20T23:21:58;4.20;;;3.80;;
62071;SDS011;48031;48.542;13.232;2023-08-20T23:26:02;5.07;;;3.70;;
62071;SDS011;48031;48.542;13.232;2023-08-20T23:30:04;4.32;;;3.90;;
62071;SDS011;48031;48.542;13.232;2023-08-20T23:34:08;4.70;;;3.38;;
62071;SDS011;48031;48.542;13.232;2023-08-20T23:38:11;4.78;;;3.95;;
62071;SDS011;48031;48.542;13.232;2023-08-20T23:42:14;4.05;;;3.67;;
62071;SDS011;48031;48.542;13.232;2023-08-20T23:46:16;4.40;;;3.53;;
62071;SDS011;48031;48.542;13.232;2023-08-20T23:50:19;7.65;;;3.55;;
62071;SDS011;48031;48.542;13.232;2023-08-20T23:54:22;5.47;;;3.67;;
62071;SDS011;48031;48.542;13.232;2023-08-20T23:58:24;4.25;;;3.78;;
